createdAt,value
2022-09-10T00:03:56.557Z,-15262.09
2022-09-10T00:09:01.409Z,-15262.09
2022-09-10T00:14:08.975Z,-15262.09
2022-09-10T00:19:13.108Z,-15262.09
2022-09-10T00:24:17.170Z,-15262.09
2022-09-10T00:29:21.988Z,-15262.09
2022-09-10T00:34:25.478Z,-15262.09
2022-09-10T00:39:29.308Z,-15262.09
2022-09-10T00:45:01.277Z,-15262.09
2022-09-10T00:50:13.708Z,-15262.09
2022-09-10T00:55:18.429Z,-15262.09
2022-09-10T01:00:23.826Z,-15262.09
2022-09-10T01:05:29.319Z,-15262.09
2022-09-10T01:10:42.462Z,-15262.09
2022-09-10T01:15:53.881Z,-15262.09
2022-09-10T01:21:06.268Z,-15262.09
2022-09-10T01:26:23.422Z,-15262.09
2022-09-10T01:31:34.950Z,-15262.09
2022-09-10T01:36:48.088Z,-15262.09
2022-09-10T01:41:55.551Z,-15262.09
2022-09-10T01:47:12.909Z,-15262.09
2022-09-10T01:52:28.651Z,-15262.09
2022-09-10T01:57:44.996Z,-15262.09
2022-09-10T02:02:53.585Z,-15262.09
2022-09-10T02:08:02.259Z,-15262.09
2022-09-10T02:13:06.988Z,-15262.09
2022-09-10T02:18:34.556Z,-15262.09
2022-09-10T02:23:44.276Z,-15262.09
2022-09-10T02:28:51.318Z,-15262.09
2022-09-10T02:33:56.678Z,-15262.09
2022-09-10T02:39:04.217Z,-15262.09
2022-09-10T02:44:08.915Z,-15262.09
2022-09-10T02:49:15.121Z,-15262.09
2022-09-10T02:54:20.537Z,-15262.09
2022-09-10T02:59:24.303Z,-15262.09
2022-09-10T03:04:29.197Z,-15262.09
2022-09-10T03:09:32.717Z,-15262.09
2022-09-10T03:14:36.174Z,-15262.09
2022-09-10T03:19:42.209Z,-15262.09
2022-09-10T03:24:47.155Z,-15262.09
2022-09-10T03:29:50.653Z,-15262.09
2022-09-10T03:34:55.747Z,-15262.09
2022-09-10T03:39:59.416Z,-15262.09
2022-09-10T03:45:03.023Z,-15262.09
2022-09-10T03:50:09.677Z,-15262.09
2022-09-10T03:55:13.453Z,-15262.09
2022-09-10T04:00:17.955Z,-15262.09
2022-09-10T04:05:27.602Z,-15262.09
2022-09-10T04:10:31.338Z,-15262.09
2022-09-10T04:15:35.555Z,-15262.09
2022-09-10T04:20:42.276Z,-15262.09
2022-09-10T04:25:47.707Z,-15262.09
2022-09-10T04:30:51.471Z,-15262.09
2022-09-10T04:36:00.494Z,-15262.09
2022-09-10T04:41:04.231Z,-15262.09
2022-09-10T04:46:08.231Z,-15262.09
2022-09-10T04:51:18.157Z,-15262.09
2022-09-10T04:56:28.251Z,-15262.09
2022-09-10T05:01:31.770Z,-15262.09
2022-09-10T05:06:36.697Z,-15262.09
2022-09-10T05:11:42.806Z,-15262.09
2022-09-10T05:16:47.403Z,-15262.09
2022-09-10T05:21:52.998Z,-15262.09
2022-09-10T05:26:57.148Z,-15262.09
2022-09-10T05:32:00.683Z,-15262.09
2022-09-10T05:37:06.065Z,-15262.09
2022-09-10T05:42:10.303Z,-15262.09
2022-09-10T05:47:14.798Z,-15262.09
2022-09-10T05:52:19.897Z,-15262.09
2022-09-10T05:57:24.153Z,-15262.09
2022-09-10T06:02:27.902Z,-15262.09
2022-09-10T06:07:34.670Z,-15262.09
2022-09-10T06:12:40.203Z,-15262.09
2022-09-10T06:17:43.985Z,-15262.09
2022-09-10T06:22:48.836Z,-15262.09
2022-09-10T06:27:52.440Z,-15262.09
2022-09-10T06:32:57.307Z,-15262.09
2022-09-10T06:38:02.604Z,-15262.09
2022-09-10T06:43:11.163Z,-15262.09
2022-09-10T06:48:44.437Z,-15262.09
2022-09-10T06:53:53.303Z,4426.66
2022-09-10T06:59:02.217Z,105972.16
2022-09-10T07:04:11.913Z,106852.75
2022-09-10T07:09:17.383Z,107298.34
2022-09-10T07:14:32.355Z,107583.63
2022-09-10T07:19:38.786Z,108460.44
2022-09-10T07:25:03.831Z,108935.38
2022-09-10T07:30:17.749Z,108939.53
2022-09-10T07:35:22.603Z,109529.09
2022-09-10T07:40:28.803Z,109324.94
2022-09-10T07:45:33.378Z,109304.09
2022-09-10T07:50:39.905Z,109381.19
2022-09-10T07:55:45.300Z,108897.88
2022-09-10T08:00:50.485Z,108112.59
2022-09-10T08:05:55.086Z,108068.88
2022-09-10T08:11:11.789Z,108079.28
2022-09-10T08:16:20.001Z,107744.00
2022-09-10T08:21:24.975Z,107156.75
2022-09-10T08:26:33.608Z,106661.22
2022-09-10T08:31:38.705Z,106074.16
2022-09-10T08:36:48.817Z,105189.53
2022-09-10T08:41:59.711Z,104359.22
2022-09-10T08:47:14.821Z,103539.47
2022-09-10T08:52:25.027Z,101998.19
2022-09-10T08:57:36.354Z,100717.38
2022-09-10T09:02:49.357Z,100721.53
2022-09-10T09:07:58.628Z,100124.94
2022-09-10T09:13:41.717Z,99781.97
2022-09-10T09:19:06.662Z,100615.50
2022-09-10T09:24:24.037Z,99299.78
2022-09-10T09:29:35.811Z,97855.72
2022-09-10T09:34:45.003Z,96154.63
2022-09-10T09:40:04.822Z,95417.50
2022-09-10T09:45:21.645Z,93590.84
2022-09-10T09:50:25.771Z,90665.78
2022-09-10T09:55:34.040Z,89575.13
2022-09-10T10:00:39.405Z,90209.59
2022-09-10T10:05:43.550Z,90813.03
2022-09-10T10:10:54.006Z,91671.69
2022-09-10T10:16:16.703Z,90499.88
2022-09-10T10:21:22.374Z,89714.03
2022-09-10T10:26:31.559Z,88891.03
2022-09-10T10:31:42.508Z,89446.59
2022-09-10T10:36:53.451Z,88169.75
2022-09-10T10:42:06.942Z,84863.44
2022-09-10T10:47:38.116Z,83600.44
2022-09-10T10:52:48.127Z,78889.53
2022-09-10T10:58:10.656Z,74667.44
2022-09-10T11:03:20.297Z,70699.47
2022-09-10T11:08:33.385Z,68312.72
2022-09-10T11:13:43.519Z,-15262.09
2022-09-10T11:18:54.184Z,-15262.09
2022-09-10T11:24:02.517Z,-15262.09
2022-09-10T11:29:22.405Z,-15262.09
2022-09-10T11:34:35.649Z,-15262.09
2022-09-10T11:39:44.482Z,-15262.09
2022-09-10T11:44:58.190Z,-15262.09
2022-09-10T11:50:10.380Z,-15262.09
2022-09-10T11:55:17.756Z,-15262.09
2022-09-10T12:00:22.455Z,-15262.09
2022-09-10T12:05:35.641Z,-15262.09
2022-09-10T12:10:47.849Z,-15262.09
2022-09-10T12:15:56.207Z,-15262.09
2022-09-10T12:21:07.132Z,-15262.09
2022-09-10T12:26:13.249Z,-15262.09
2022-09-10T12:31:18.855Z,-15262.09
2022-09-10T12:36:55.911Z,-15262.09
2022-09-10T12:42:02.926Z,-15262.09
2022-09-10T12:47:40.513Z,-15262.09
2022-09-10T12:52:55.772Z,-15262.09
2022-09-10T12:58:06.351Z,-15262.09
2022-09-10T13:03:17.109Z,-15262.09
2022-09-10T13:08:25.434Z,-15262.09
2022-09-10T13:13:37.551Z,-15262.09
2022-09-10T13:18:42.196Z,-15262.09
2022-09-10T13:23:48.527Z,-15262.09
2022-09-10T13:29:09.345Z,-15262.09
2022-09-10T13:34:34.634Z,-15262.09
2022-09-10T13:40:14.373Z,-15262.09
2022-09-10T13:45:29.374Z,-15262.09
2022-09-10T13:50:39.179Z,-15262.09
2022-09-10T13:55:52.215Z,-15262.09
2022-09-10T14:01:01.021Z,-15262.09
2022-09-10T14:06:07.729Z,-15262.09
2022-09-10T14:11:20.289Z,-15262.09
2022-09-10T14:16:30.460Z,-15262.09
2022-09-10T14:21:34.355Z,-15262.09
2022-09-10T14:26:37.937Z,-15262.09
2022-09-10T14:31:42.878Z,-15262.09
2022-09-10T14:36:46.553Z,-15262.09
2022-09-10T14:41:50.933Z,-15262.09
2022-09-10T14:46:58.519Z,-15262.09
2022-09-10T14:52:03.631Z,-15262.09
2022-09-10T14:57:13.227Z,-15262.09
2022-09-10T15:02:21.022Z,-15262.09
2022-09-10T15:07:25.159Z,-15262.09
2022-09-10T15:12:31.190Z,-15262.09
2022-09-10T15:17:37.426Z,-15262.09
2022-09-10T15:22:41.217Z,-15262.09
2022-09-10T15:27:44.750Z,-15262.09
2022-09-10T15:32:49.633Z,-15262.09
2022-09-10T15:37:53.291Z,-15262.09
2022-09-10T15:42:57.893Z,-15262.09
2022-09-10T15:48:03.249Z,-15262.09
2022-09-10T15:53:10.436Z,-15262.09
2022-09-10T15:58:15.475Z,-15262.09
2022-09-10T16:03:20.722Z,-15262.09
2022-09-10T16:08:24.236Z,-15262.09
2022-09-10T16:13:27.850Z,-15262.09
2022-09-10T16:18:33.775Z,-15262.09
2022-09-10T16:23:38.429Z,-15262.09
2022-09-10T16:28:43.305Z,-15262.09
2022-09-10T16:33:52.776Z,-15262.09
2022-09-10T16:39:01.738Z,-15262.09
2022-09-10T16:44:05.965Z,-15262.09
2022-09-10T16:49:13.915Z,-15262.09
2022-09-10T16:54:19.884Z,-15262.09
2022-09-10T16:59:25.940Z,-15262.09
2022-09-10T17:04:33.754Z,-15262.09
2022-09-10T17:09:37.185Z,-15262.09
2022-09-10T17:14:40.711Z,-15262.09
2022-09-10T17:19:45.661Z,-15262.09
2022-09-10T17:24:50.070Z,-15262.09
2022-09-10T17:29:54.236Z,-15262.09
2022-09-10T17:34:59.457Z,-15262.09
2022-09-10T17:40:03.375Z,-15262.09
2022-09-10T17:45:08.045Z,-15262.09
2022-09-10T17:50:13.046Z,-15262.09
2022-09-10T17:55:16.789Z,-15262.09
2022-09-10T18:00:21.085Z,-15262.09
2022-09-10T18:05:26.485Z,-15262.09
2022-09-10T18:10:30.009Z,-15262.09
2022-09-10T18:15:33.733Z,-15262.09
2022-09-10T18:20:39.988Z,-15262.09
2022-09-10T18:25:49.568Z,-15262.09
2022-09-10T18:30:53.389Z,-15262.09
2022-09-10T18:35:58.302Z,-15262.09
2022-09-10T18:41:03.502Z,-15262.09
2022-09-10T18:46:07.211Z,-15262.09
2022-09-10T18:51:13.064Z,-15262.09
2022-09-10T18:56:19.071Z,-15262.09
2022-09-10T19:01:23.722Z,-15262.09
2022-09-10T19:06:30.844Z,-15262.09
2022-09-10T19:11:37.660Z,-15262.09
2022-09-10T19:16:42.087Z,-15262.09
2022-09-10T19:21:48.322Z,-15262.09
2022-09-10T19:26:51.852Z,-15262.09
2022-09-10T19:31:55.522Z,-15262.09
2022-09-10T19:37:00.412Z,-15262.09
2022-09-10T19:42:04.318Z,-15262.09
2022-09-10T19:47:08.216Z,-15262.09
2022-09-10T19:52:13.127Z,-15262.09
2022-09-10T19:57:16.795Z,-15262.09
2022-09-10T20:02:20.393Z,-15262.09
2022-09-10T20:07:25.699Z,-15262.09
2022-09-10T20:12:29.521Z,-15262.09
2022-09-10T20:17:34.259Z,-15262.09
2022-09-10T20:22:39.076Z,-15262.09
2022-09-10T20:27:42.546Z,-15262.09
2022-09-10T20:32:45.994Z,-15262.09
2022-09-10T20:37:51.856Z,-15262.09
2022-09-10T20:42:55.341Z,-15262.09
2022-09-10T20:48:00.346Z,-15262.09
2022-09-10T20:53:05.177Z,-15262.09
2022-09-10T20:58:08.696Z,-15262.09
2022-09-10T21:03:13.054Z,-15262.09
2022-09-10T21:08:17.849Z,-15262.09
2022-09-10T21:13:24.576Z,-15262.09
2022-09-10T21:18:28.663Z,-15262.09
2022-09-10T21:23:33.471Z,-15262.09
2022-09-10T21:28:36.959Z,-15262.09
2022-09-10T21:33:40.977Z,-15262.09
2022-09-10T21:38:49.342Z,-15262.09
2022-09-10T21:43:52.988Z,-15262.09
2022-09-10T21:48:57.043Z,-15262.09
2022-09-10T21:54:02.000Z,-15262.09
2022-09-10T21:59:05.488Z,-15262.09
2022-09-10T22:04:08.952Z,-15262.09
2022-09-10T22:09:16.812Z,-15262.09
2022-09-10T22:14:21.996Z,-15262.09
2022-09-10T22:19:27.333Z,-15262.09
2022-09-10T22:24:32.222Z,-15262.09
2022-09-10T22:29:35.602Z,-15262.09
2022-09-10T22:34:39.125Z,-15262.09
2022-09-10T22:39:43.971Z,-15262.09
2022-09-10T22:44:47.417Z,-15262.09
2022-09-10T22:49:50.896Z,-15262.09
2022-09-10T22:54:55.875Z,-15262.09
2022-09-10T22:59:59.463Z,-15262.09
2022-09-10T23:05:02.869Z,-15262.09
2022-09-10T23:10:08.421Z,-15262.09
2022-09-10T23:15:12.011Z,-15262.09
2022-09-10T23:20:15.685Z,-15262.09
2022-09-10T23:25:20.638Z,-15262.09
2022-09-10T23:30:24.107Z,-15262.09
2022-09-10T23:35:27.834Z,-15262.09
2022-09-10T23:40:34.284Z,-15262.09
2022-09-10T23:45:37.920Z,-15262.09
2022-09-10T23:50:41.394Z,-15262.09
2022-09-10T23:55:46.469Z,-15262.09
